Atqasuk, AK

2:33 AM AKDT on August 22, 2014 (GMT -0800)
Atqasuk Edward Burnell Sr Mem | Change Station
CLOSE
Current Station
Airport
Location: Atqasuk Edward Burnell Sr Mem,
Elevation: 95 ft
Nearby Weather Stations

Elev 95 ft 70.47 °N, 157.44 °W | Updated 37 minutes ago

Overcast
Overcast
47 °F
Feels Like 47 °F
N
7
Wind Variable Wind from South

Today
High -- | Low -- °F
--% Chance of Precip.
Yesterday
High -- | Low -- °F
Precip. -- in
5:57 AM 11:04 PM
Waning Crescent, 9% visible
Pressure 30.15 in
Visibility 10.0 miles
Clouds Mostly Cloudy 8000 ft
Overcast 9500 ft
Dew Point 47 °F
Humidity 100%
Rainfall 0.00 in
Snow Depth Not available.
UV 0 out of 12
Pollen Not available.
Air Quality Not available.
Flu Activity Not available.
METAR PATQ 220956Z AUTO 17006KT 10SM BKN080 OVC095 08/08 A3014 RMK AO2 TSNO T00830083 SLP210 $

More Conditions Fewer Conditions

Pressure 30.15 in
Visibility 10.0 miles
Clouds Mostly Cloudy 8000 ft
Overcast 9500 ft
Dew Point 47 °F
Humidity 100%
Rainfall 0.00 in
Snow Depth Not available.
UV 0 out of 12
Pollen Not available.
Air Quality Not available.
Flu Activity Not available.
METAR PATQ 220956Z AUTO 17006KT 10SM BKN080 OVC095 08/08 A3014 RMK AO2 TSNO T00830083 SLP210 $

More Conditions Fewer Conditions

10-Day Weather Forecast

Almanac

Astronomy

Aug. 22, 2014 Rise Set
Actual Time 5:57 AM AKDT 11:04 PM AKDT
Civil Twilight 4:14 AM AKDT 12:43 AM AKDT
Nautical Twilight Sun does not rise Sun does not rise
Astronomical Twilight Sun does not rise Sun does not rise
Moon 2:33 AM AKDT 9:48 PM AKDT
Length of Visible Light 20h 28m
Length of Day
17h 06m
Tomorrow will be 10m 6s shorter.
Waning Crescent, 9% of the Moon is Illuminated
Today
Waning Crescent
Aug 25
New
Sep 2
First Quarter
Sep 8
Full
Sep 15
Last Quarter

Today's Extremes

State Highs State Lows

Community

WunderPhotos

Upload Photos

1,746,149 photos uploaded!

Nearby

Snow Depth

Station Depth Elevation
Imnaviat Creek 0 in 3050 ft
Atigun Pass 0 in 4800 ft
Coldfoot 1 in 1040 ft
Gobblers Knob 0 in 2030 ft
Fort Yukon 2 in 430 ft

Earthquake Activity

City Distance Mag. Time & Date
No recent earthquake activity has been reported nearby.
Minimum magnitude displayed is 2.5.

Coastal Water Temperatures

Place Temperature
No Stations Reporting

Nearby Weather Stations